Hannover, Germany

11:45 PM CEST on July 29, 2016 (GMT +0200)
Riedgrasweg | | Change Station

Elev 150 ft 52.48 °N, 9.74 °E | Updated 4 minutes ago

Mostly Cloudy
Mostly Cloudy
67.8 °F
Feels Like 67.8 °F
N
0.6
Wind Variable Wind from WNW
Gusts 3.7 mph

Today
High -- | Low -- °F
--% Chance of Precip.
Yesterday
High -- | Low -- °F
Precip. -- in
Pressure 29.86 in
Visibility 6.2 miles
Clouds Few 4000 ft
Mostly Cloudy 7400 ft
Dew Point 61 °F
Humidity 79%
Rainfall 0.00 in
Snow Depth Not available.
5:36 AM 9:17 PM
Waning Crescent, 19% visible
METAR EDDV 292120Z 21005KT 9999 FEW040 BKN074 19/16 Q1011
Pressure 29.86 in
Visibility 6.2 miles
Clouds Few 4000 ft
Mostly Cloudy 7400 ft
Dew Point 61 °F
Humidity 79%
Rainfall 0.00 in
Snow Depth Not available.
5:36 AM 9:17 PM
Waning Crescent, 19% visible
METAR EDDV 292120Z 21005KT 9999 FEW040 BKN074 19/16 Q1011

10-Day Weather Forecast

×

Almanac

Astronomy

Jul. 29, 2016 Rise Set
Actual Time
Civil Twilight
Nautical Twilight
Astronomical Twilight
Moon
Length of Visible Light
Length of Day
Tomorrow will be .
, % of the Moon is Illuminated

Today's Extremes

Country Highs Country Lows

Community

WunderPhotos

Upload Photos

1,928,423 photos uploaded!

WunderBlog® & News

Nearby

Air Quality

  Air Quality AQ Index Pollutant
Not available.

Snow Depth

Station Depth Elevation

Earthquake Activity

City Distance Mag. Time & Date
Minimum magnitude displayed is 2.5.

Coastal Water Temperatures

Place Temperature

Stations

Nearby Weather Stations

Station Location Temp. Windchill Dew Point Humidity Wind Precip. Elev Updated Type